Time;durP1;ratioP1;P1;durP2;ratioP2;P2;SDS_P1;SDS_P2;PMS_P1;PMS_P2;Temp;Humidity;BMP_temperature;BMP_pressure;BME280_temperature;BME280_humidity;BME280_pressure;Samples;Min_cycle;Max_cycle;Signal;HPM_P1;HPM_P2
2021/08/22 00:02:20;;;;;;;6.40;4.50;;;;;;;19.18;60.34;101335.50;5039964;28;20209;-70
2021/08/22 00:04:45;;;;;;;4.90;4.40;;;;;;;18.85;60.91;101337.78;5040105;28;20582;-70
2021/08/22 00:07:13;;;;;;;5.30;4.80;;;;;;;18.96;60.85;101332.34;5040850;28;20206;-71
2021/08/22 00:09:38;;;;;;;4.67;4.27;;;;;;;18.74;61.42;101340.59;5039996;28;20244;-70
2021/08/22 00:12:04;;;;;;;5.40;4.90;;;;;;;18.68;61.55;101338.00;5040173;28;20853;-70
2021/08/22 00:14:29;;;;;;;4.27;3.97;;;;;;;18.50;62.14;101334.75;5040035;28;20180;-71
2021/08/22 00:16:55;;;;;;;4.50;4.10;;;;;;;19.10;60.56;101334.78;5039876;28;20453;-72
2021/08/22 00:19:20;;;;;;;5.10;4.67;;;;;;;18.41;62.18;101340.13;5048586;28;20183;-71
2021/08/22 00:21:46;;;;;;;5.10;4.53;;;;;;;18.83;61.12;101335.16;5032856;28;20228;-70
2021/08/22 00:24:11;;;;;;;6.77;4.47;;;;;;;18.97;60.47;101334.09;5051817;28;20214;-71
2021/08/22 00:26:36;;;;;;;5.47;4.90;;;;;;;19.15;60.24;101330.28;5047444;28;20200;-72
2021/08/22 00:29:02;;;;;;;4.70;4.30;;;;;;;18.63;61.38;101331.91;5047942;28;20166;-71
2021/08/22 00:31:27;;;;;;;5.57;4.60;;;;;;;18.90;60.31;101332.44;5053358;28;20224;-72
2021/08/22 00:33:52;;;;;;;4.83;4.43;;;;;;;19.05;60.55;101324.28;5053864;28;20228;-70
2021/08/22 00:36:18;;;;;;;5.17;4.67;;;;;;;18.85;60.69;101325.44;5053106;28;20182;-71
2021/08/22 00:38:44;;;;;;;5.10;4.60;;;;;;;18.95;60.05;101320.91;5044763;28;20175;-70
2021/08/22 00:41:10;;;;;;;4.70;4.30;;;;;;;18.79;60.76;101316.72;5039286;28;20221;-70
2021/08/22 00:43:35;;;;;;;4.97;4.53;;;;;;;19.01;60.06;101312.88;5039707;28;20409;-71
2021/08/22 00:46:00;;;;;;;5.97;5.10;;;;;;;19.07;59.82;101309.25;5039172;28;20181;-71
2021/08/22 00:48:29;;;;;;;6.30;4.70;;;;;;;18.73;60.89;101312.41;5039143;28;20215;-71
2021/08/22 00:50:54;;;;;;;8.50;5.07;;;;;;;18.59;61.14;101309.97;5039704;28;20163;-70
2021/08/22 00:53:19;;;;;;;4.90;4.40;;;;;;;19.00;59.54;101311.13;5038900;28;20475;-71
2021/08/22 00:55:45;;;;;;;5.07;4.60;;;;;;;18.56;60.82;101312.66;5039184;28;20485;-70
2021/08/22 00:58:10;;;;;;;4.87;4.47;;;;;;;18.97;60.02;101311.19;5039504;28;20184;-69
2021/08/22 01:00:37;;;;;;;4.70;4.30;;;;;;;18.66;60.23;101314.28;5038773;28;20555;-70
2021/08/22 01:03:20;;;;;;;5.33;4.83;;;;;;;18.98;59.34;101296.19;5038795;28;20438;-71
2021/08/22 01:05:59;;;;;;;4.80;4.40;;;;;;;19.34;58.01;101291.19;5021847;28;20413;-72
2021/08/22 01:08:26;;;;;;;4.80;4.40;;;;;;;18.68;59.90;101296.63;5021793;28;20420;-71
2021/08/22 01:10:57;;;;;;;4.73;4.33;;;;;;;18.68;60.36;101293.13;5038815;28;20436;-71
2021/08/22 01:13:25;;;;;;;5.17;4.77;;;;;;;19.02;59.09;101297.88;5021549;28;20445;-71
2021/08/22 01:15:56;;;;;;;4.60;4.20;;;;;;;18.63;60.06;101294.94;5021434;28;20413;-71
2021/08/22 01:18:24;;;;;;;5.20;4.80;;;;;;;19.08;58.86;101286.34;5038662;28;20425;-71
2021/08/22 01:21:05;;;;;;;5.13;4.10;;;;;;;18.64;59.69;101280.84;5021893;28;20873;-70
2021/08/22 01:23:32;;;;;;;4.87;4.47;;;;;;;18.97;58.62;101281.25;5038410;28;20413;-72
2021/08/22 01:25:58;;;;;;;4.40;4.10;;;;;;;18.74;59.57;101285.13;5021159;28;20464;-71
2021/08/22 01:28:23;;;;;;;5.20;4.70;;;;;;;19.09;58.29;101274.88;5038514;28;20698;-71
2021/08/22 01:30:49;;;;;;;6.20;4.20;;;;;;;18.95;58.70;101268.06;5021249;28;20283;-71
2021/08/22 01:33:17;;;;;;;4.70;4.30;;;;;;;18.49;60.47;101266.13;5020626;28;20166;-71
2021/08/22 01:35:43;;;;;;;4.50;4.10;;;;;;;19.06;58.54;101261.72;5038262;28;20463;-70
2021/08/22 01:38:09;;;;;;;4.70;4.30;;;;;;;18.27;60.58;101260.28;5021152;28;20413;-72
2021/08/22 01:40:35;;;;;;;4.73;4.33;;;;;;;18.88;59.01;101257.59;5021502;28;20508;-72
2021/08/22 01:43:02;;;;;;;5.07;4.67;;;;;;;18.61;60.06;101254.50;5038111;28;20416;-71
2021/08/22 01:45:28;;;;;;;4.97;4.13;;;;;;;18.92;59.11;101257.53;5038281;28;20169;-71
2021/08/22 01:47:53;;;;;;;5.60;5.10;;;;;;;18.71;59.65;101255.22;5038677;28;20414;-72
2021/08/22 01:50:20;;;;;;;4.47;4.10;;;;;;;18.13;61.50;101260.44;5038199;28;20437;-71
2021/08/22 01:52:47;;;;;;;4.93;4.53;;;;;;;18.46;60.26;101251.19;5020902;28;20204;-71
2021/08/22 01:55:12;;;;;;;5.00;4.50;;;;;;;18.43;60.51;101255.63;5021353;28;20393;-71
2021/08/22 01:57:39;;;;;;;5.13;4.50;;;;;;;18.43;61.28;101251.25;5038217;28;20439;-71
2021/08/22 02:00:05;;;;;;;4.73;4.23;;;;;;;18.46;60.44;101245.91;5038171;28;20536;-72
2021/08/22 02:02:30;;;;;;;5.63;4.33;;;;;;;18.37;60.73;101245.19;5038397;28;20423;-71
2021/08/22 02:05:00;;;;;;;4.70;4.20;;;;;;;18.47;60.62;101247.66;5037880;28;20432;-71
2021/08/22 02:07:28;;;;;;;5.27;4.77;;;;;;;18.71;60.10;101250.81;5038483;28;20170;-72
2021/08/22 02:10:05;;;;;;;4.10;3.80;;;;;;;18.15;61.58;101242.84;5021259;28;20415;-71
2021/08/22 02:12:30;;;;;;;6.83;4.40;;;;;;;18.23;61.00;101230.41;5038067;28;20516;-72
2021/08/22 02:15:17;;;;;;;4.13;3.77;;;;;;;18.07;61.22;101235.03;5004206;28;20507;-70
2021/08/22 02:17:47;;;;;;;4.60;4.20;;;;;;;18.24;61.77;101220.72;5037919;28;20166;-71
2021/08/22 02:20:13;;;;;;;5.23;4.73;;;;;;;18.35;60.79;101224.09;5037842;28;20472;-70
2021/08/22 02:22:42;;;;;;;5.00;4.27;;;;;;;17.93;62.44;101223.81;5020701;28;20468;-71
2021/08/22 02:25:08;;;;;;;5.40;4.60;;;;;;;17.94;62.45;101222.91;5017150;28;20309;-71
2021/08/22 02:27:34;;;;;;;4.87;4.20;;;;;;;17.92;61.89;101216.78;5018305;28;20414;-71
2021/08/22 02:29:59;;;;;;;4.73;4.27;;;;;;;17.80;62.40;101217.78;5018089;28;20510;-70
2021/08/22 02:32:24;;;;;;;4.50;4.10;;;;;;;17.69;63.00;101217.91;5017376;28;20247;-72
2021/08/22 02:34:51;;;;;;;4.90;4.40;;;;;;;17.56;63.41;101213.66;5018227;28;20167;-70
2021/08/22 02:37:16;;;;;;;5.00;4.40;;;;;;;18.10;61.56;101210.38;5018023;28;20212;-72
2021/08/22 02:39:42;;;;;;;4.53;4.13;;;;;;;17.43;63.34;101203.28;5017998;28;20479;-71
2021/08/22 02:42:07;;;;;;;4.53;4.07;;;;;;;17.46;63.24;101205.88;5018429;28;20203;-71
2021/08/22 02:44:33;;;;;;;4.47;4.10;;;;;;;17.72;62.34;101207.31;5019117;28;20221;-71
2021/08/22 02:46:58;;;;;;;5.00;4.50;;;;;;;16.98;64.21;101205.47;5021484;28;20274;-71
2021/08/22 02:49:24;;;;;;;5.13;4.63;;;;;;;17.40;63.17;101203.31;5022231;28;20193;-71
2021/08/22 02:51:49;;;;;;;4.53;3.90;;;;;;;17.58;62.52;101206.63;5021785;28;20257;-71
2021/08/22 02:54:14;;;;;;;4.20;3.90;;;;;;;17.84;61.80;101209.78;5021667;28;20182;-71
2021/08/22 02:56:40;;;;;;;4.40;4.00;;;;;;;17.38;62.90;101205.09;5022514;28;20163;-71
2021/08/22 02:59:05;;;;;;;4.23;3.93;;;;;;;17.73;61.73;101209.06;5021463;28;20177;-70
2021/08/22 03:01:31;;;;;;;4.10;3.80;;;;;;;17.40;62.61;101203.31;5021241;28;20293;-71
2021/08/22 03:03:56;;;;;;;4.40;4.10;;;;;;;17.56;62.39;101208.41;5021582;28;20174;-70
2021/08/22 03:06:21;;;;;;;4.40;4.00;;;;;;;17.50;62.17;101204.94;5021394;28;20254;-71
2021/08/22 03:08:47;;;;;;;4.40;4.00;;;;;;;17.23;63.15;101213.16;5021335;28;20548;-71
2021/08/22 03:11:16;;;;;;;4.00;3.70;;;;;;;17.23;62.80;101207.91;5020985;28;20424;-71
2021/08/22 03:13:41;;;;;;;4.13;3.83;;;;;;;17.44;62.50;101199.75;5021117;28;20170;-71
2021/08/22 03:16:07;;;;;;;4.50;4.10;;;;;;;17.23;63.37;101200.84;5021046;28;20428;-71
2021/08/22 03:18:32;;;;;;;4.57;4.10;;;;;;;17.09;63.51;101193.09;5021448;28;20178;-70
2021/08/22 03:20:57;;;;;;;4.40;4.00;;;;;;;17.26;62.43;101197.31;5021007;28;20576;-71
2021/08/22 03:23:22;;;;;;;5.20;4.20;;;;;;;17.28;62.30;101198.19;5020884;28;20174;-72
2021/08/22 03:25:48;;;;;;;5.20;4.10;;;;;;;17.51;62.12;101190.88;5037169;28;20226;-71
2021/08/22 03:28:13;;;;;;;5.40;3.90;;;;;;;17.83;60.99;101194.88;5040670;28;20167;-72
2021/08/22 03:30:38;;;;;;;4.80;4.40;;;;;;;17.21;62.08;101186.84;5041109;28;20174;-71
2021/08/22 03:33:04;;;;;;;4.60;4.20;;;;;;;17.07;62.91;101186.97;5040913;28;20169;-71
2021/08/22 03:35:29;;;;;;;4.60;4.20;;;;;;;17.56;61.58;101187.31;5040560;28;20181;-71
2021/08/22 03:37:54;;;;;;;4.30;4.00;;;;;;;17.40;61.72;101184.88;5041107;28;20171;-71
2021/08/22 03:40:20;;;;;;;5.00;3.57;;;;;;;17.68;60.80;101185.41;5040564;28;20213;-71
2021/08/22 03:42:45;;;;;;;4.07;3.67;;;;;;;17.34;61.38;101179.66;5040413;28;20224;-70
2021/08/22 03:45:10;;;;;;;3.80;3.50;;;;;;;17.43;61.17;101187.47;5040903;28;20274;-70
2021/08/22 03:47:36;;;;;;;4.43;3.93;;;;;;;17.40;61.26;101174.31;5040375;28;20413;-70
2021/08/22 03:50:01;;;;;;;4.30;3.90;;;;;;;17.14;62.12;101186.03;5040343;28;20256;-71
2021/08/22 03:52:27;;;;;;;4.33;3.93;;;;;;;17.41;61.57;101175.19;5040721;28;20528;-72
2021/08/22 03:54:52;;;;;;;3.90;3.60;;;;;;;17.16;61.70;101184.22;5006640;28;20229;-71
2021/08/22 03:57:17;;;;;;;4.00;3.70;;;;;;;17.50;61.20;101177.72;5039208;28;20242;-70
2021/08/22 03:59:42;;;;;;;4.23;3.83;;;;;;;17.11;62.16;101180.78;5040694;28;20174;-71
2021/08/22 04:02:08;;;;;;;4.20;3.80;;;;;;;17.15;62.01;101179.84;5040016;28;20232;-71
2021/08/22 04:04:33;;;;;;;3.83;3.53;;;;;;;17.07;62.02;101175.56;5040093;28;20178;-71
2021/08/22 04:06:58;;;;;;;4.37;3.97;;;;;;;17.03;62.41;101171.22;5040614;28;20212;-72
2021/08/22 04:09:25;;;;;;;4.60;3.90;;;;;;;17.09;62.43;101177.28;5039925;28;20200;-71
2021/08/22 04:11:52;;;;;;;4.20;3.90;;;;;;;16.88;62.88;101172.22;5039913;28;20198;-71
2021/08/22 04:14:18;;;;;;;4.10;3.70;;;;;;;17.32;61.79;101160.38;5040149;28;20671;-71
2021/08/22 04:16:44;;;;;;;4.77;4.00;;;;;;;17.19;61.93;101166.66;5039816;28;20417;-70
2021/08/22 04:19:09;;;;;;;3.80;3.50;;;;;;;17.25;61.59;101156.03;5039807;28;20682;-70
2021/08/22 04:21:34;;;;;;;7.43;3.60;;;;;;;17.05;62.32;101165.03;5040368;28;20198;-71
2021/08/22 04:24:00;;;;;;;3.93;3.63;;;;;;;17.04;61.97;101162.44;5039277;28;20177;-71
2021/08/22 04:26:25;;;;;;;4.13;3.83;;;;;;;17.11;62.34;101157.06;5022590;28;20261;-72
2021/08/22 04:28:50;;;;;;;4.43;3.80;;;;;;;17.48;61.53;101154.03;5040317;28;20170;-71
2021/08/22 04:31:16;;;;;;;3.93;3.63;;;;;;;17.07;62.61;101160.63;5039476;28;20190;-72
2021/08/22 04:33:41;;;;;;;4.10;3.70;;;;;;;17.53;61.10;101153.09;5039423;28;20319;-71
2021/08/22 04:36:06;;;;;;;4.27;3.40;;;;;;;17.98;59.50;101156.00;5040043;28;20400;-71
2021/08/22 04:38:34;;;;;;;4.13;3.83;;;;;;;17.45;61.07;101154.03;5039283;28;20173;-71
2021/08/22 04:40:59;;;;;;;3.80;3.50;;;;;;;17.56;59.98;101155.69;5039413;28;20202;-70
2021/08/22 04:43:25;;;;;;;5.73;3.80;;;;;;;17.44;60.75;101147.03;5039721;28;20413;-70
2021/08/22 04:45:50;;;;;;;4.93;3.67;;;;;;;17.35;60.97;101160.31;5039318;28;20166;-72
2021/08/22 04:48:15;;;;;;;3.87;3.57;;;;;;;17.61;60.51;101160.00;5039095;28;20223;-71
2021/08/22 04:50:41;;;;;;;4.00;3.70;;;;;;;17.80;59.71;101154.47;5039682;28;20177;-71
2021/08/22 04:53:06;;;;;;;5.30;3.73;;;;;;;17.73;59.76;101158.97;5039042;28;20181;-72
2021/08/22 04:55:31;;;;;;;3.87;3.57;;;;;;;17.39;61.06;101159.41;5038958;28;20174;-71
2021/08/22 04:57:57;;;;;;;3.90;3.50;;;;;;;17.48;60.16;101163.66;5039626;28;20178;-72
2021/08/22 05:00:22;;;;;;;4.90;3.70;;;;;;;17.64;60.16;101161.72;5038943;28;20182;-71
2021/08/22 05:02:47;;;;;;;3.50;3.23;;;;;;;17.13;61.43;101162.31;5038850;28;20233;-71
2021/08/22 05:05:13;;;;;;;5.23;3.70;;;;;;;17.16;61.15;101170.19;5039249;28;20181;-72
2021/08/22 05:07:38;;;;;;;4.23;3.77;;;;;;;17.72;59.72;101162.47;5038672;28;20184;-72
2021/08/22 05:10:04;;;;;;;4.70;4.30;;;;;;;17.57;60.02;101157.44;5038758;28;20217;-72
2021/08/22 05:12:29;;;;;;;3.90;3.50;;;;;;;17.23;60.96;101155.19;5039168;28;20214;-71
2021/08/22 05:14:54;;;;;;;4.00;3.70;;;;;;;17.43;60.52;101157.59;5038567;28;20170;-71
2021/08/22 05:17:20;;;;;;;3.93;3.63;;;;;;;17.44;60.31;101168.13;5038700;28;20176;-71
2021/08/22 05:19:45;;;;;;;3.70;3.40;;;;;;;17.43;60.50;101161.09;5038990;28;20201;-71
2021/08/22 05:22:10;;;;;;;3.97;3.63;;;;;;;17.43;60.43;101158.47;5038673;28;20252;-71
2021/08/22 05:24:35;;;;;;;4.17;3.77;;;;;;;17.69;60.02;101162.53;5038288;28;20226;-72
2021/08/22 05:27:01;;;;;;;5.30;3.90;;;;;;;17.57;60.64;101162.69;5021747;28;20173;-71
2021/08/22 05:29:27;;;;;;;3.93;3.53;;;;;;;17.60;60.28;101162.66;5038403;28;20178;-71
2021/08/22 05:31:52;;;;;;;3.80;3.50;;;;;;;17.52;60.27;101181.19;5038482;28;20431;-71
2021/08/22 05:34:17;;;;;;;3.80;3.40;;;;;;;17.48;60.23;101174.22;5038795;28;20408;-71
2021/08/22 05:36:43;;;;;;;3.70;3.40;;;;;;;18.04;59.34;101171.75;5038407;28;20174;-71
2021/08/22 05:39:08;;;;;;;4.70;4.10;;;;;;;17.63;60.13;101174.03;5038305;28;20166;-71
2021/08/22 05:41:34;;;;;;;3.50;3.20;;;;;;;17.36;60.42;101167.34;5038847;28;20186;-71
2021/08/22 05:43:59;;;;;;;3.97;3.57;;;;;;;17.74;59.80;101173.00;5038200;28;20177;-71
2021/08/22 05:46:25;;;;;;;3.90;3.53;;;;;;;17.63;60.15;101173.16;5038245;28;20170;-72
2021/08/22 05:48:50;;;;;;;4.43;4.03;;;;;;;17.73;59.59;101174.78;5038822;28;20510;-71
2021/08/22 05:51:17;;;;;;;4.90;3.80;;;;;;;17.75;59.61;101169.50;5038269;28;20196;-71
2021/08/22 05:53:43;;;;;;;4.20;3.40;;;;;;;18.16;58.75;101168.94;5038007;28;20173;-71
2021/08/22 05:56:09;;;;;;;4.17;3.77;;;;;;;17.67;59.44;101185.41;5038696;28;20409;-71
2021/08/22 05:58:34;;;;;;;4.53;3.60;;;;;;;17.90;59.67;101181.59;5020918;28;20492;-71
2021/08/22 06:00:59;;;;;;;3.90;3.60;;;;;;;17.63;60.86;101178.41;5037829;28;20663;-71
2021/08/22 06:03:25;;;;;;;3.83;3.50;;;;;;;17.37;62.49;101171.69;5038585;28;20167;-70
2021/08/22 06:05:50;;;;;;;5.13;3.70;;;;;;;17.64;62.48;101177.53;5038236;28;20173;-72
2021/08/22 06:08:16;;;;;;;3.80;3.50;;;;;;;16.64;64.63;101182.94;5038170;28;20467;-70
2021/08/22 06:10:42;;;;;;;4.60;4.20;;;;;;;17.04;64.66;101179.09;5038514;28;20543;-71
2021/08/22 06:13:07;;;;;;;4.20;3.67;;;;;;;16.76;65.92;101167.91;5037904;28;20420;-71
2021/08/22 06:15:32;;;;;;;4.10;3.80;;;;;;;16.94;65.46;101159.00;5038072;28;20170;-71
2021/08/22 06:17:58;;;;;;;4.13;3.53;;;;;;;16.80;65.35;101165.22;5038323;28;20174;-71
2021/08/22 06:20:23;;;;;;;4.40;4.00;;;;;;;16.84;64.54;101174.88;5040758;28;20189;-70
2021/08/22 06:22:48;;;;;;;4.03;3.70;;;;;;;17.49;63.22;101163.69;5041687;28;20198;-71
2021/08/22 06:25:14;;;;;;;5.40;3.70;;;;;;;16.87;64.42;101170.47;5024558;28;20260;-71
2021/08/22 06:27:39;;;;;;;3.93;3.63;;;;;;;17.70;62.03;101169.56;5041915;28;20166;-71
2021/08/22 06:30:05;;;;;;;4.53;4.13;;;;;;;17.32;62.42;101171.78;5041994;28;20170;-71
2021/08/22 06:32:30;;;;;;;4.27;3.87;;;;;;;17.63;62.26;101173.16;5041708;28;20532;-71
2021/08/22 06:34:55;;;;;;;3.83;3.53;;;;;;;17.46;62.38;101168.97;5041631;28;20387;-70
2021/08/22 06:37:21;;;;;;;8.60;3.70;;;;;;;17.30;62.73;101168.25;5042128;28;20183;-72
2021/08/22 06:39:48;;;;;;;5.70;3.70;;;;;;;17.15;63.21;101169.31;5041591;28;20575;-71
2021/08/22 06:42:14;;;;;;;4.40;3.63;;;;;;;17.66;61.61;101163.44;5041525;28;20204;-72
2021/08/22 06:44:40;;;;;;;3.70;3.40;;;;;;;17.44;62.42;101169.88;5041718;28;20433;-71
2021/08/22 06:47:07;;;;;;;4.17;3.67;;;;;;;17.74;61.26;101166.00;5041352;28;20488;-70
2021/08/22 06:49:32;;;;;;;4.67;3.70;;;;;;;17.61;61.05;101180.22;5024382;28;20173;-71
2021/08/22 06:51:58;;;;;;;6.50;3.67;;;;;;;17.71;61.26;101166.03;5041804;28;20473;-71
2021/08/22 06:54:23;;;;;;;5.90;3.50;;;;;;;17.80;61.13;101170.31;5041208;28;20204;-71
2021/08/22 06:56:51;;;;;;;3.83;3.53;;;;;;;18.31;59.18;101170.47;5041195;28;20436;-72
2021/08/22 06:59:17;;;;;;;3.67;3.33;;;;;;;18.16;59.96;101182.13;5042025;28;20171;-73
2021/08/22 07:01:42;;;;;;;4.20;3.80;;;;;;;18.37;59.57;101200.31;5041081;28;20452;-72
2021/08/22 07:04:07;;;;;;;3.80;3.50;;;;;;;18.13;60.20;101221.78;5040916;28;20186;-72
2021/08/22 07:06:32;;;;;;;4.70;3.90;;;;;;;18.44;59.33;101218.69;5041724;28;20431;-71
2021/08/22 07:08:58;;;;;;;4.40;4.00;;;;;;;18.14;60.11;101210.31;5041058;28;20178;-72
2021/08/22 07:11:23;;;;;;;6.10;3.90;;;;;;;18.04;60.59;101221.88;5041951;28;20170;-71
2021/08/22 07:13:48;;;;;;;3.90;3.60;;;;;;;18.17;59.71;101226.09;5041132;28;20170;-71
2021/08/22 07:16:14;;;;;;;4.10;3.67;;;;;;;17.99;60.70;101213.16;5041025;28;20170;-71
2021/08/22 07:18:40;;;;;;;3.80;3.43;;;;;;;17.90;60.60;101214.13;5041023;28;20177;-71
2021/08/22 07:21:07;;;;;;;3.60;3.30;;;;;;;17.59;61.44;101219.78;5041550;28;20190;-71
2021/08/22 07:23:32;;;;;;;5.43;4.57;;;;;;;17.93;60.50;101218.53;5040773;28;20409;-71
2021/08/22 07:25:57;;;;;;;3.93;3.60;;;;;;;18.00;59.95;101212.28;5040638;28;20442;-71
2021/08/22 07:28:22;;;;;;;4.10;3.80;;;;;;;17.49;61.62;101211.13;5041280;28;20170;-71
2021/08/22 07:30:48;;;;;;;3.87;3.57;;;;;;;16.94;63.41;101187.97;5040529;28;20197;-71
2021/08/22 07:33:13;;;;;;;4.13;3.80;;;;;;;17.54;61.75;101184.69;5040249;28;20241;-71
2021/08/22 07:35:39;;;;;;;4.00;3.70;;;;;;;18.21;60.36;101205.81;5041098;28;20585;-71
2021/08/22 07:38:04;;;;;;;4.17;3.77;;;;;;;19.11;57.78;101212.31;5040567;28;20170;-71
2021/08/22 07:40:29;;;;;;;4.23;3.70;;;;;;;18.98;57.49;101201.06;5040704;28;20221;-71
2021/08/22 07:42:55;;;;;;;3.80;3.50;;;;;;;18.48;58.87;101199.25;5040750;28;20193;-71
2021/08/22 07:45:20;;;;;;;3.97;3.67;;;;;;;18.25;59.29;101193.44;5040386;28;20166;-71
2021/08/22 07:47:45;;;;;;;6.00;3.77;;;;;;;18.62;59.19;101200.81;5040335;28;20224;-71
2021/08/22 07:50:11;;;;;;;4.50;4.10;;;;;;;18.87;57.27;101187.16;5040858;28;20170;-72
2021/08/22 07:52:36;;;;;;;5.97;3.70;;;;;;;18.91;57.63;101195.03;5040468;28;20167;-72
2021/08/22 07:55:02;;;;;;;5.33;3.73;;;;;;;19.18;56.61;101192.78;5040591;28;20170;-71
2021/08/22 07:57:27;;;;;;;3.83;3.53;;;;;;;20.31;53.72;101187.78;5040531;28;20173;-71
2021/08/22 07:59:53;;;;;;;3.63;3.33;;;;;;;19.76;55.59;101189.88;5040156;28;20202;-71
2021/08/22 08:02:20;;;;;;;4.27;3.77;;;;;;;20.18;54.12;101188.06;5040031;28;20284;-72
2021/08/22 08:04:45;;;;;;;4.33;3.50;;;;;;;20.06;54.78;101192.78;5040228;28;20162;-72
2021/08/22 08:07:10;;;;;;;3.90;3.60;;;;;;;20.66;51.84;101191.34;5040128;28;20417;-73
2021/08/22 08:09:36;;;;;;;4.00;3.60;;;;;;;20.26;53.20;101190.53;5039974;28;20459;-72
2021/08/22 08:12:01;;;;;;;3.90;3.60;;;;;;;19.91;53.88;101192.22;5040368;28;20245;-72
2021/08/22 08:14:26;;;;;;;4.17;3.77;;;;;;;18.77;57.12;101192.59;5039828;28;20206;-72
2021/08/22 08:16:52;;;;;;;4.10;3.70;;;;;;;19.32;55.17;101197.81;5039685;28;20243;-71
2021/08/22 08:19:17;;;;;;;4.03;3.73;;;;;;;19.02;56.59;101197.47;5040243;28;20162;-71
2021/08/22 08:21:42;;;;;;;5.20;3.53;;;;;;;18.65;58.11;101198.09;5039608;28;20214;-71
2021/08/22 08:24:08;;;;;;;4.40;4.00;;;;;;;19.74;55.42;101187.28;5039342;28;20218;-70
2021/08/22 08:26:33;;;;;;;4.10;3.70;;;;;;;19.05;56.52;101193.91;5022917;28;20178;-73
2021/08/22 08:28:58;;;;;;;4.03;3.60;;;;;;;19.71;54.89;101189.97;5039407;28;20542;-72
2021/08/22 08:31:23;;;;;;;4.33;3.80;;;;;;;19.51;54.97;101188.63;5039562;28;20178;-70
2021/08/22 08:33:49;;;;;;;5.43;3.87;;;;;;;19.75;55.42;101182.84;5039812;28;20524;-71
2021/08/22 08:36:14;;;;;;;4.27;3.87;;;;;;;18.98;56.71;101190.50;5039398;28;20170;-71
2021/08/22 08:38:40;;;;;;;6.43;3.90;;;;;;;18.92;56.91;101191.50;5039230;28;20174;-71
2021/08/22 08:41:05;;;;;;;4.93;3.67;;;;;;;18.71;57.29;101191.84;5039755;28;20201;-71
2021/08/22 08:43:31;;;;;;;4.10;3.80;;;;;;;19.79;54.62;101192.44;5038474;28;20428;-71
2021/08/22 08:45:59;;;;;;;5.23;4.00;;;;;;;19.21;56.47;101198.00;5039142;28;20244;-72
2021/08/22 08:48:28;;;;;;;4.17;3.87;;;;;;;19.31;55.62;101198.72;5039637;28;20193;-72
2021/08/22 08:51:10;;;;;;;4.03;3.73;;;;;;;19.01;56.23;101198.38;5036870;28;20430;-75
2021/08/22 08:53:44;;;;;;;3.80;3.50;;;;;;;19.94;54.43;101204.50;5038803;28;20425;-73
2021/08/22 08:56:17;;;;;;;4.20;3.90;;;;;;;19.21;56.21;101205.06;5021609;28;20433;-73
2021/08/22 08:58:42;;;;;;;4.00;3.60;;;;;;;19.65;55.06;101201.53;5038820;28;20798;-74
2021/08/22 09:01:07;;;;;;;5.40;3.60;;;;;;;18.88;56.76;101195.09;5038699;28;20456;-74
2021/08/22 09:03:35;;;;;;;3.90;3.60;;;;;;;20.02;53.75;101187.56;5038752;28;20174;-73
2021/08/22 09:06:10;;;;;;;4.07;3.70;;;;;;;19.18;56.22;101203.34;5039195;28;20170;-73
2021/08/22 09:09:21;;;;;;;4.13;3.73;;;;;;;19.34;55.74;101210.09;5038772;28;20432;-74
2021/08/22 09:12:23;;;;;;;4.13;3.73;;;;;;;19.83;54.79;101212.69;5001128;28;20431;-74
2021/08/22 09:15:26;;;;;;;4.30;3.60;;;;;;;20.12;53.90;101214.69;5038497;28;20824;-74
2021/08/22 09:18:18;;;;;;;3.80;3.50;;;;;;;19.70;55.23;101214.69;5038747;28;20411;-74
2021/08/22 09:21:08;;;;;;;3.60;3.30;;;;;;;19.35;55.88;101222.41;5038435;28;20435;-75
2021/08/22 09:24:30;;;;;;;3.97;3.63;;;;;;;19.34;54.69;101214.53;5038514;28;20433;-74
2021/08/22 09:27:33;;;;;;;6.20;3.90;;;;;;;19.36;55.82;101223.28;5018533;28;20438;-71
2021/08/22 09:30:35;;;;;;;5.80;4.53;;;;;;;19.73;54.61;101216.38;5018825;28;20460;-71
2021/08/22 09:33:38;;;;;;;4.33;3.90;;;;;;;20.12;53.20;101217.34;5018514;28;20671;-70
2021/08/22 09:36:25;;;;;;;4.40;4.00;;;;;;;18.62;57.19;101221.94;5018783;28;20751;-70
2021/08/22 09:39:28;;;;;;;4.20;3.80;;;;;;;18.58;57.45;101223.72;5018795;28;20406;-69
2021/08/22 09:42:31;;;;;;;6.10;4.90;;;;;;;19.52;55.31;101223.84;5018669;28;20457;-69
2021/08/22 09:45:34;;;;;;;4.97;4.50;;;;;;;18.98;56.66;101230.13;5018397;28;20432;-72
2021/08/22 09:48:36;;;;;;;4.27;3.97;;;;;;;19.02;57.21;101229.19;5018373;28;20406;-70
2021/08/22 09:51:07;;;;;;;4.23;3.90;;;;;;;18.96;57.20;101230.16;5018426;28;20401;-70
2021/08/22 09:54:09;;;;;;;4.97;4.50;;;;;;;18.40;58.50;101240.75;5017728;28;20842;-68
2021/08/22 09:57:12;;;;;;;4.53;4.13;;;;;;;18.80;58.26;101239.22;5018584;28;20541;-70
2021/08/22 10:00:05;;;;;;;4.43;4.03;;;;;;;18.56;58.53;101249.28;5026924;28;20845;-69
2021/08/22 10:03:05;;;;;;;4.57;4.20;;;;;;;18.04;61.52;101256.19;5037860;28;20452;-71
2021/08/22 10:05:48;;;;;;;5.07;4.57;;;;;;;17.43;66.87;101257.75;5038109;28;20491;-78
2021/08/22 10:08:15;;;;;;;5.20;4.80;;;;;;;17.61;69.79;101257.53;5037886;28;20672;-75
2021/08/22 10:10:46;;;;;;;8.87;8.00;;;;;;;17.63;72.01;101253.13;5037858;28;20667;-76
2021/08/22 10:13:11;;;;;;;5.30;4.90;;;;;;;16.75;73.08;101264.47;5020738;28;20428;-75
2021/08/22 10:15:42;;;;;;;5.63;5.13;;;;;;;16.94;73.12;101253.81;5037936;28;20421;-74
2021/08/22 10:18:07;;;;;;;7.57;6.83;;;;;;;17.00;72.65;101261.66;5020698;28;20532;-74
2021/08/22 10:20:43;;;;;;;5.93;5.33;;;;;;;16.71;74.05;101257.50;5037960;28;20405;-73
2021/08/22 10:23:41;;;;;;;5.30;4.90;;;;;;;16.96;74.66;101255.53;5037767;28;20184;-74
2021/08/22 10:26:08;;;;;;;6.30;5.70;;;;;;;17.02;72.93;101259.88;5037710;28;20464;-74
2021/08/22 10:28:46;;;;;;;6.17;5.57;;;;;;;17.58;71.37;101254.09;5037779;28;20380;-76
2021/08/22 10:31:12;;;;;;;5.33;4.87;;;;;;;17.40;70.98;101257.78;5037784;28;20495;-76
2021/08/22 10:34:12;;;;;;;5.90;5.30;;;;;;;17.12;73.05;101265.97;5003915;28;20417;-76
2021/08/22 10:36:37;;;;;;;11.13;8.40;;;;;;;18.36;69.43;101260.16;5037574;28;20794;-76
2021/08/22 10:39:25;;;;;;;5.90;5.40;;;;;;;17.49;71.38;101265.59;5037597;28;20443;-75
2021/08/22 10:41:51;;;;;;;5.73;5.30;;;;;;;17.65;70.89;101271.56;5037472;28;20201;-75
2021/08/22 10:44:35;;;;;;;6.07;5.53;;;;;;;17.24;71.86;101264.94;5037265;28;20413;-76
2021/08/22 10:47:01;;;;;;;5.60;5.10;;;;;;;17.83;69.38;101259.94;5037965;28;20405;-76
2021/08/22 10:49:54;;;;;;;5.70;5.07;;;;;;;17.82;69.20;101261.69;5037552;28;20865;-76
2021/08/22 10:52:26;;;;;;;5.67;5.20;;;;;;;17.74;70.67;101271.47;5037597;28;20730;-76
2021/08/22 10:55:10;;;;;;;5.43;4.93;;;;;;;17.89;69.08;101265.13;5037355;28;20542;-74
2021/08/22 10:57:41;;;;;;;6.23;5.63;;;;;;;18.03;70.33;101267.63;5037569;28;20405;-77
2021/08/22 11:00:21;;;;;;;5.43;4.93;;;;;;;17.80;70.09;101266.09;5037430;28;20515;-75
2021/08/22 11:02:47;;;;;;;5.50;5.00;;;;;;;17.98;69.86;101272.09;5020739;28;20788;-75
2021/08/22 11:05:15;;;;;;;6.70;5.00;;;;;;;17.51;71.71;101269.97;5038076;28;20449;-75
2021/08/22 11:07:40;;;;;;;6.00;5.43;;;;;;;17.57;71.79;101268.16;5041091;28;20178;-74
2021/08/22 11:10:12;;;;;;;5.23;4.73;;;;;;;18.39;69.08;101270.66;5041503;28;20427;-75
2021/08/22 11:12:38;;;;;;;5.37;4.87;;;;;;;18.32;69.12;101269.00;5040904;28;20185;-75
2021/08/22 11:15:04;;;;;;;5.27;4.87;;;;;;;18.14;67.93;101264.84;5040706;28;20829;-75
2021/08/22 11:17:30;;;;;;;5.70;5.17;;;;;;;17.68;71.77;101271.53;5041100;28;20417;-75
2021/08/22 11:20:09;;;;;;;6.20;5.67;;;;;;;18.06;70.32;101269.34;5023622;28;20404;-78
2021/08/22 11:22:35;;;;;;;5.93;5.37;;;;;;;18.04;71.11;101274.66;5040673;28;20213;-74
2021/08/22 11:25:00;;;;;;;8.10;5.00;;;;;;;17.34;71.85;101288.56;5040463;28;20468;-75
2021/08/22 11:27:28;;;;;;;4.87;4.57;;;;;;;17.17;71.88;101283.47;5040838;28;20185;-74
2021/08/22 11:29:55;;;;;;;4.80;4.40;;;;;;;17.26;70.80;101284.28;5041219;28;20166;-74
2021/08/22 11:32:20;;;;;;;5.27;4.87;;;;;;;17.15;72.71;101284.38;5040587;28;20388;-74
2021/08/22 11:34:45;;;;;;;5.10;4.70;;;;;;;17.43;71.98;101286.75;5023334;28;20421;-75